Time;durP1;ratioP1;P1;durP2;ratioP2;P2;SDS_P1;SDS_P2;PMS_P1;PMS_P2;Temp;Humidity;BMP_temperature;BMP_pressure;BME280_temperature;BME280_humidity;BME280_pressure;Samples;Min_cycle;Max_cycle;Signal;HPM_P1;HPM_P2
2022/11/25 00:00:49;;;;;;;17.57;8.17;;;;;;;;;;5100295;28;20209;-62
2022/11/25 00:03:19;;;;;;;13.00;8.03;;;;;;;;;;5101772;28;20669;-62
2022/11/25 00:05:47;;;;;;;21.47;8.27;;;;;;;;;;5100955;28;20271;-62
2022/11/25 00:08:15;;;;;;;13.60;7.80;;;;;;;;;;5102043;28;20212;-62
2022/11/25 00:10:43;;;;;;;14.77;7.37;;;;;;;;;;5101662;28;20210;-62
2022/11/25 00:13:11;;;;;;;12.37;6.90;;;;;;;;;;5101608;28;20205;-62
2022/11/25 00:15:39;;;;;;;13.27;7.50;;;;;;;;;;5101266;28;20204;-62
2022/11/25 00:18:09;;;;;;;14.03;7.50;;;;;;;;;;5099224;28;20208;-62
2022/11/25 00:20:37;;;;;;;13.70;6.93;;;;;;;;;;5101914;28;20210;-62
2022/11/25 00:23:05;;;;;;;15.97;7.80;;;;;;;;;;5101791;28;20201;-62
2022/11/25 00:25:33;;;;;;;13.30;7.17;;;;;;;;;;5100520;28;20226;-62
2022/11/25 00:28:01;;;;;;;14.37;7.17;;;;;;;;;;5102290;28;20224;-62
2022/11/25 00:30:29;;;;;;;15.93;8.30;;;;;;;;;;5103538;28;20572;-62
2022/11/25 00:32:57;;;;;;;19.40;9.83;;;;;;;;;;5102447;28;20296;-62
2022/11/25 00:35:26;;;;;;;16.70;8.10;;;;;;;;;;5100106;28;20241;-62
2022/11/25 00:37:54;;;;;;;16.43;7.97;;;;;;;;;;5100321;28;20216;-61
2022/11/25 00:40:22;;;;;;;10.13;6.40;;;;;;;;;;5100699;28;20687;-62
2022/11/25 00:45:36;;;;;;;13.90;7.63;;;;;;;;;;5101238;28;20233;-62
2022/11/25 00:48:04;;;;;;;14.23;7.47;;;;;;;;;;5100569;28;20233;-61
2022/11/25 00:50:34;;;;;;;19.23;7.83;;;;;;;;;;5101096;28;20201;-62
2022/11/25 00:53:02;;;;;;;17.47;8.17;;;;;;;;;;5101083;28;20683;-62
2022/11/25 00:56:11;;;;;;;11.50;7.57;;;;;;;;;;5100969;28;20212;-61
2022/11/25 00:58:17;;;;;;;11.77;7.70;;;;;;;;;;5100771;28;20205;-62
2022/11/25 01:00:45;;;;;;;15.43;7.60;;;;;;;;;;5100487;28;20265;-62
2022/11/25 01:03:13;;;;;;;20.17;8.73;;;;;;;;;;5100694;28;20673;-62
2022/11/25 01:05:43;;;;;;;14.63;8.00;;;;;;;;;;5100552;28;20242;-62
2022/11/25 01:08:11;;;;;;;11.57;7.90;;;;;;;;;;5101130;28;20223;-62
2022/11/25 01:10:39;;;;;;;16.03;7.83;;;;;;;;;;5099448;28;20206;-62
2022/11/25 01:13:07;;;;;;;13.27;7.53;;;;;;;;;;5099068;28;20206;-62
2022/11/25 01:15:36;;;;;;;16.37;8.13;;;;;;;;;;5094147;28;20208;-62
2022/11/25 01:18:04;;;;;;;17.57;7.80;;;;;;;;;;5098567;28;20198;-62
2022/11/25 01:20:32;;;;;;;16.80;7.40;;;;;;;;;;5100732;28;20227;-62
2022/11/25 01:23:02;;;;;;;14.90;6.90;;;;;;;;;;5100680;28;20212;-62
2022/11/25 01:25:30;;;;;;;12.43;7.33;;;;;;;;;;5094895;28;20228;-62
2022/11/25 01:27:58;;;;;;;17.60;7.30;;;;;;;;;;5100311;28;20736;-62
2022/11/25 01:30:26;;;;;;;11.03;6.80;;;;;;;;;;5100009;28;20209;-61
2022/11/25 01:32:54;;;;;;;14.90;6.87;;;;;;;;;;5100339;28;20231;-62
2022/11/25 01:35:22;;;;;;;12.53;6.00;;;;;;;;;;5099612;28;20222;-62
2022/11/25 01:37:50;;;;;;;15.87;6.70;;;;;;;;;;5100222;28;20213;-62
2022/11/25 01:40:19;;;;;;;17.07;6.70;;;;;;;;;;5099803;28;20227;-62
2022/11/25 01:42:48;;;;;;;12.57;6.83;;;;;;;;;;5099966;28;20575;-62
2022/11/25 01:45:39;;;;;;;19.97;7.27;;;;;;;;;;5099977;28;20229;-62
2022/11/25 01:48:11;;;;;;;16.40;7.30;;;;;;;;;;5084177;28;20209;-62
2022/11/25 01:50:40;;;;;;;11.50;7.77;;;;;;;;;;5100031;28;20212;-62
2022/11/25 01:53:10;;;;;;;20.83;10.23;;;;;;;;;;5100102;28;20209;-62
2022/11/25 01:55:41;;;;;;;15.93;8.80;;;;;;;;;;5099718;28;20744;-62
2022/11/25 01:58:10;;;;;;;16.07;7.93;;;;;;;;;;5100060;28;20212;-62
2022/11/25 02:00:38;;;;;;;21.27;8.93;;;;;;;;;;5090566;28;20202;-62
2022/11/25 02:03:07;;;;;;;15.63;8.40;;;;;;;;;;5096274;28;20216;-62
2022/11/25 02:05:38;;;;;;;15.97;8.00;;;;;;;;;;5099326;28;20293;-61
2022/11/25 02:08:07;;;;;;;16.83;8.50;;;;;;;;;;5099984;28;20202;-62
2022/11/25 02:10:35;;;;;;;15.07;8.40;;;;;;;;;;5099586;28;20205;-62
2022/11/25 02:13:04;;;;;;;17.30;7.73;;;;;;;;;;5098663;28;20201;-61
2022/11/25 02:15:34;;;;;;;15.20;7.77;;;;;;;;;;5099743;28;20204;-62
2022/11/25 02:18:02;;;;;;;12.43;7.13;;;;;;;;;;5096679;28;20260;-62
2022/11/25 02:20:30;;;;;;;16.40;7.47;;;;;;;;;;5099320;28;20201;-63
2022/11/25 02:23:00;;;;;;;16.27;8.03;;;;;;;;;;5098659;28;20206;-61
2022/11/25 02:25:31;;;;;;;18.37;8.43;;;;;;;;;;5098210;28;20228;-60
2022/11/25 02:28:01;;;;;;;15.13;7.50;;;;;;;;;;5099143;28;20232;-62
2022/11/25 02:30:29;;;;;;;17.17;7.07;;;;;;;;;;5099439;28;20288;-61
2022/11/25 02:32:58;;;;;;;11.00;6.27;;;;;;;;;;5099435;28;20216;-61
2022/11/25 02:35:31;;;;;;;10.93;6.00;;;;;;;;;;5099218;28;20225;-61
2022/11/25 02:38:00;;;;;;;9.47;5.93;;;;;;;;;;5098481;28;20267;-61
2022/11/25 02:40:30;;;;;;;11.40;5.73;;;;;;;;;;5098907;28;20288;-61
2022/11/25 02:42:59;;;;;;;11.97;5.17;;;;;;;;;;5099094;28;20216;-62
2022/11/25 02:45:31;;;;;;;12.77;5.43;;;;;;;;;;5098913;28;20317;-61
2022/11/25 02:47:59;;;;;;;8.57;4.60;;;;;;;;;;5098068;28;20611;-61
2022/11/25 02:50:27;;;;;;;7.97;4.90;;;;;;;;;;5098660;28;20212;-62
2022/11/25 02:52:55;;;;;;;11.30;4.97;;;;;;;;;;5098678;28;20283;-62
2022/11/25 02:55:23;;;;;;;10.27;5.13;;;;;;;;;;5098669;28;20217;-62
2022/11/25 02:57:53;;;;;;;5.50;3.83;;;;;;;;;;5097760;28;20216;-62
2022/11/25 03:00:21;;;;;;;10.87;4.57;;;;;;;;;;5098674;28;20209;-62
2022/11/25 03:02:53;;;;;;;7.83;4.33;;;;;;;;;;5098523;28;20207;-62
2022/11/25 03:05:21;;;;;;;6.97;4.60;;;;;;;;;;5098365;28;20241;-62
2022/11/25 03:07:49;;;;;;;7.23;4.27;;;;;;;;;;5097828;28;20780;-62
2022/11/25 03:10:19;;;;;;;7.90;3.90;;;;;;;;;;5087651;28;20238;-62
2022/11/25 03:12:47;;;;;;;7.83;3.87;;;;;;;;;;5098191;28;20677;-62
2022/11/25 03:15:16;;;;;;;10.20;4.30;;;;;;;;;;5098362;28;20217;-64
2022/11/25 03:17:45;;;;;;;10.03;5.00;;;;;;;;;;5095459;28;20223;-62
2022/11/25 03:20:14;;;;;;;7.83;4.63;;;;;;;;;;5097433;28;20217;-62
2022/11/25 03:22:42;;;;;;;7.90;4.73;;;;;;;;;;5097012;28;20563;-63
2022/11/25 03:25:10;;;;;;;7.97;4.63;;;;;;;;;;5097497;28;20229;-62
2022/11/25 03:27:39;;;;;;;7.90;5.40;;;;;;;;;;5097919;28;20679;-62
2022/11/25 03:30:08;;;;;;;5.47;3.97;;;;;;;;;;5098496;28;20219;-62
2022/11/25 03:32:39;;;;;;;12.80;4.43;;;;;;;;;;5097519;28;20193;-62
2022/11/25 03:35:08;;;;;;;9.27;4.10;;;;;;;;;;5097990;28;20222;-62
2022/11/25 03:37:36;;;;;;;11.43;4.67;;;;;;;;;;5098275;28;20201;-62
2022/11/25 03:40:05;;;;;;;9.53;4.33;;;;;;;;;;5097708;28;20551;-62
2022/11/25 03:42:37;;;;;;;10.43;4.30;;;;;;;;;;5096668;28;20235;-62
2022/11/25 03:45:05;;;;;;;14.73;5.17;;;;;;;;;;5097140;28;20224;-62
2022/11/25 03:47:36;;;;;;;12.63;4.53;;;;;;;;;;5098190;28;20212;-62
2022/11/25 03:50:07;;;;;;;8.07;4.67;;;;;;;;;;5097857;28;20569;-62
2022/11/25 03:52:35;;;;;;;9.00;4.40;;;;;;;;;;5098080;28;20201;-62
2022/11/25 03:55:04;;;;;;;8.17;4.23;;;;;;;;;;5097594;28;20226;-62
2022/11/25 03:57:32;;;;;;;8.47;4.00;;;;;;;;;;5096520;28;20659;-62
2022/11/25 04:00:00;;;;;;;11.73;4.80;;;;;;;;;;5097683;28;20201;-62
2022/11/25 04:02:28;;;;;;;10.37;4.40;;;;;;;;;;5097800;28;20205;-63
2022/11/25 04:04:56;;;;;;;10.17;5.00;;;;;;;;;;5097367;28;20273;-63
2022/11/25 04:07:26;;;;;;;12.13;4.40;;;;;;;;;;5097741;28;20229;-61
2022/11/25 04:09:54;;;;;;;9.53;4.67;;;;;;;;;;5096810;28;20247;-62
2022/11/25 04:15:08;;;;;;;10.90;4.23;;;;;;;;;;5097838;28;20225;-62
2022/11/25 04:17:36;;;;;;;11.53;5.00;;;;;;;;;;5095117;28;20202;-62
2022/11/25 04:20:05;;;;;;;10.33;4.40;;;;;;;;;;5096903;28;20206;-62
2022/11/25 04:22:39;;;;;;;10.87;4.73;;;;;;;;;;5097869;28;20213;-61
2022/11/25 04:25:10;;;;;;;7.43;4.47;;;;;;;;;;5089607;28;20236;-61
2022/11/25 04:27:38;;;;;;;13.30;4.80;;;;;;;;;;5097385;28;20575;-62
2022/11/25 04:30:07;;;;;;;10.40;4.50;;;;;;;;;;5097957;28;20292;-62
2022/11/25 04:32:38;;;;;;;12.83;5.57;;;;;;;;;;5096593;28;20193;-62
2022/11/25 04:35:07;;;;;;;9.83;4.67;;;;;;;;;;5097388;28;20225;-62
2022/11/25 04:37:35;;;;;;;11.00;4.87;;;;;;;;;;5097467;28;20201;-62
2022/11/25 04:40:05;;;;;;;9.67;4.63;;;;;;;;;;5097342;28;20220;-62
2022/11/25 04:42:35;;;;;;;11.33;5.00;;;;;;;;;;5097565;28;20322;-62
2022/11/25 04:45:05;;;;;;;10.50;4.90;;;;;;;;;;5086381;28;20279;-62
2022/11/25 04:47:50;;;;;;;9.40;5.10;;;;;;;;;;5099291;28;20209;-62
2022/11/25 04:50:19;;;;;;;11.27;4.40;;;;;;;;;;5101371;28;20221;-62
2022/11/25 04:52:47;;;;;;;12.27;5.30;;;;;;;;;;5101411;28;20212;-61
2022/11/25 04:55:16;;;;;;;8.03;4.77;;;;;;;;;;5100386;28;20731;-62
2022/11/25 04:57:44;;;;;;;8.00;4.90;;;;;;;;;;5100913;28;20194;-62
2022/11/25 05:00:12;;;;;;;12.37;4.50;;;;;;;;;;5100305;28;20652;-61
2022/11/25 05:02:40;;;;;;;9.83;5.50;;;;;;;;;;5101276;28;20206;-61
2022/11/25 05:05:09;;;;;;;10.83;5.10;;;;;;;;;;5099641;28;20237;-61
2022/11/25 05:07:37;;;;;;;11.13;5.83;;;;;;;;;;5100549;28;20221;-60
2022/11/25 05:10:06;;;;;;;12.60;5.93;;;;;;;;;;5098384;28;20619;-60
2022/11/25 05:12:37;;;;;;;15.07;7.10;;;;;;;;;;5101029;28;20201;-61
2022/11/25 05:15:05;;;;;;;13.13;6.77;;;;;;;;;;5097017;28;20592;-62
2022/11/25 05:17:36;;;;;;;14.40;6.50;;;;;;;;;;5100504;28;20224;-62
2022/11/25 05:20:04;;;;;;;15.70;8.27;;;;;;;;;;5097809;28;20263;-62
2022/11/25 05:22:34;;;;;;;12.60;7.33;;;;;;;;;;5101115;28;20559;-62
2022/11/25 05:25:05;;;;;;;13.70;6.47;;;;;;;;;;5101408;28;20241;-62
2022/11/25 05:27:37;;;;;;;10.07;5.57;;;;;;;;;;5099839;28;20219;-62
2022/11/25 05:30:08;;;;;;;14.47;5.40;;;;;;;;;;5096972;28;20198;-61
2022/11/25 05:32:39;;;;;;;12.67;5.70;;;;;;;;;;5098962;28;20684;-62
2022/11/25 05:35:08;;;;;;;15.27;6.33;;;;;;;;;;5097692;28;20580;-62
2022/11/25 05:37:36;;;;;;;11.47;6.10;;;;;;;;;;5100462;28;20190;-61
2022/11/25 05:40:08;;;;;;;12.43;6.13;;;;;;;;;;5096837;28;20205;-61
2022/11/25 05:42:39;;;;;;;11.50;6.00;;;;;;;;;;5097957;28;20197;-61
2022/11/25 05:45:08;;;;;;;11.70;7.03;;;;;;;;;;5097707;28;20221;-61
2022/11/25 05:47:36;;;;;;;9.83;6.70;;;;;;;;;;5094154;28;20222;-61
2022/11/25 05:50:04;;;;;;;12.03;6.73;;;;;;;;;;5098844;28;20202;-61
2022/11/25 05:52:32;;;;;;;17.20;7.50;;;;;;;;;;5099493;28;20202;-61
2022/11/25 05:55:00;;;;;;;14.53;7.20;;;;;;;;;;5117330;28;20231;-61
2022/11/25 06:00:44;;;;;;;16.47;8.53;;;;;;;;;;5107263;28;20578;-61
2022/11/25 06:03:12;;;;;;;12.97;6.43;;;;;;;;;;5099587;28;20205;-61
2022/11/25 06:05:40;;;;;;;11.50;6.27;;;;;;;;;;5099752;28;20233;-61
2022/11/25 06:08:09;;;;;;;16.43;7.03;;;;;;;;;;5099692;28;20232;-59
2022/11/25 06:10:38;;;;;;;10.77;5.83;;;;;;;;;;5099578;28;20213;-60
2022/11/25 06:13:06;;;;;;;14.30;6.77;;;;;;;;;;5097271;28;20215;-60
2022/11/25 06:15:34;;;;;;;12.50;6.50;;;;;;;;;;5098697;28;20209;-61
2022/11/25 06:18:04;;;;;;;9.97;6.07;;;;;;;;;;5096689;28;20194;-61
2022/11/25 06:20:32;;;;;;;13.00;5.67;;;;;;;;;;5099621;28;20209;-61
2022/11/25 06:23:00;;;;;;;12.37;6.67;;;;;;;;;;5099617;28;20212;-62
2022/11/25 06:25:28;;;;;;;14.90;6.50;;;;;;;;;;5098129;28;20594;-61
2022/11/25 06:27:56;;;;;;;12.33;6.90;;;;;;;;;;5099506;28;20218;-62
2022/11/25 06:30:39;;;;;;;16.60;6.30;;;;;;;;;;5099286;28;20642;-62
2022/11/25 06:33:09;;;;;;;8.97;6.07;;;;;;;;;;5099474;28;20212;-61
2022/11/25 06:35:37;;;;;;;16.47;6.40;;;;;;;;;;5098995;28;20209;-61
2022/11/25 06:38:05;;;;;;;11.90;6.67;;;;;;;;;;5098176;28;20637;-61
2022/11/25 06:40:33;;;;;;;10.70;5.90;;;;;;;;;;5098604;28;20209;-61
2022/11/25 06:43:01;;;;;;;10.17;5.70;;;;;;;;;;5098842;28;20557;-62
2022/11/25 06:45:29;;;;;;;12.33;6.00;;;;;;;;;;5099037;28;20205;-62
2022/11/25 06:47:57;;;;;;;11.90;6.30;;;;;;;;;;5098697;28;20225;-62
2022/11/25 06:50:26;;;;;;;8.17;5.30;;;;;;;;;;5098887;28;20216;-62
2022/11/25 06:52:54;;;;;;;11.57;5.60;;;;;;;;;;5098807;28;20209;-62
2022/11/25 06:55:22;;;;;;;9.00;6.50;;;;;;;;;;5098284;28;20236;-62
2022/11/25 06:57:50;;;;;;;11.87;6.20;;;;;;;;;;5098587;28;20550;-62
2022/11/25 07:00:34;;;;;;;9.97;5.97;;;;;;;;;;5097640;28;20245;-61
2022/11/25 07:03:02;;;;;;;10.60;6.27;;;;;;;;;;5098487;28;20224;-61
2022/11/25 07:05:32;;;;;;;12.37;5.30;;;;;;;;;;5096890;28;20233;-62
2022/11/25 07:08:00;;;;;;;9.20;5.80;;;;;;;;;;5098294;28;20229;-62
2022/11/25 07:10:28;;;;;;;10.80;5.70;;;;;;;;;;5098022;28;20205;-62
2022/11/25 07:12:58;;;;;;;7.80;4.80;;;;;;;;;;5098345;28;20209;-62
2022/11/25 07:15:26;;;;;;;10.57;4.93;;;;;;;;;;5097726;28;20232;-62
2022/11/25 07:17:54;;;;;;;11.40;5.83;;;;;;;;;;5095619;28;20207;-62
2022/11/25 07:20:24;;;;;;;10.90;5.80;;;;;;;;;;5098486;28;20213;-62
2022/11/25 07:22:53;;;;;;;10.93;5.47;;;;;;;;;;5097966;28;20668;-62
2022/11/25 07:25:21;;;;;;;9.83;5.90;;;;;;;;;;5097702;28;20591;-62
2022/11/25 07:27:56;;;;;;;15.83;5.83;;;;;;;;;;5094079;28;20739;-62
2022/11/25 07:30:24;;;;;;;12.63;5.40;;;;;;;;;;5098252;28;20209;-62
2022/11/25 07:33:12;;;;;;;8.30;5.17;;;;;;;;;;5097629;28;20215;-62
2022/11/25 07:35:40;;;;;;;11.03;7.03;;;;;;;;;;5098003;28;20205;-62
2022/11/25 07:38:09;;;;;;;10.60;6.73;;;;;;;;;;5096950;28;20224;-62
2022/11/25 07:40:37;;;;;;;11.67;5.83;;;;;;;;;;5095866;28;20572;-62
2022/11/25 07:43:05;;;;;;;9.60;6.60;;;;;;;;;;5094696;28;20204;-62
2022/11/25 07:45:33;;;;;;;12.50;6.93;;;;;;;;;;5097933;28;20209;-62
2022/11/25 07:48:01;;;;;;;16.97;6.57;;;;;;;;;;5097763;28;20220;-62
2022/11/25 07:50:29;;;;;;;7.87;6.00;;;;;;;;;;5097925;28;20208;-62
2022/11/25 07:52:57;;;;;;;13.57;6.80;;;;;;;;;;5088043;28;20202;-62
2022/11/25 07:55:27;;;;;;;9.13;6.03;;;;;;;;;;5093042;28;20607;-62
2022/11/25 07:57:54;;;;;;;12.03;6.33;;;;;;;;;;5079692;28;20198;-63
2022/11/25 08:00:22;;;;;;;15.60;6.83;;;;;;;;;;5097991;28;20217;-62
2022/11/25 08:02:51;;;;;;;16.33;7.13;;;;;;;;;;5097028;28;20202;-62
2022/11/25 08:05:19;;;;;;;11.50;6.03;;;;;;;;;;5097387;28;20269;-62
2022/11/25 08:07:47;;;;;;;13.50;7.10;;;;;;;;;;5097472;28;20597;-62
2022/11/25 08:10:17;;;;;;;17.20;6.67;;;;;;;;;;5097388;28;20209;-62
2022/11/25 08:12:47;;;;;;;11.53;6.30;;;;;;;;;;5096624;28;20205;-62
2022/11/25 08:15:15;;;;;;;13.30;7.03;;;;;;;;;;5097602;28;20225;-62
2022/11/25 08:17:43;;;;;;;11.80;6.27;;;;;;;;;;5094977;28;20202;-62
2022/11/25 08:20:11;;;;;;;17.97;5.97;;;;;;;;;;5097870;28;20209;-62
2022/11/25 08:22:39;;;;;;;14.20;6.87;;;;;;;;;;5101730;28;20215;-62
2022/11/25 08:25:08;;;;;;;14.30;6.80;;;;;;;;;;5100726;28;20228;-61
2022/11/25 08:27:36;;;;;;;17.57;8.30;;;;;;;;;;5101355;28;20307;-62
2022/11/25 08:30:06;;;;;;;16.53;6.90;;;;;;;;;;5101613;28;20206;-62
2022/11/25 08:32:36;;;;;;;13.87;7.00;;;;;;;;;;5101413;28;20206;-62
2022/11/25 08:35:05;;;;;;;16.43;7.27;;;;;;;;;;5101648;28;20225;-62
2022/11/25 08:37:33;;;;;;;12.97;7.67;;;;;;;;;;5093805;28;20236;-62
2022/11/25 08:40:00;;;;;;;13.40;6.50;;;;;;;;;;5101358;28;20206;-62
2022/11/25 08:42:29;;;;;;;11.50;6.10;;;;;;;;;;5098546;28;20256;-62
2022/11/25 08:44:56;;;;;;;16.73;6.57;;;;;;;;;;5096048;28;20225;-62
2022/11/25 08:47:26;;;;;;;13.00;6.43;;;;;;;;;;5093911;28;20566;-62
2022/11/25 08:49:54;;;;;;;9.53;5.90;;;;;;;;;;5101359;28;20208;-62
2022/11/25 08:52:22;;;;;;;14.00;6.93;;;;;;;;;;5101285;28;20212;-62
2022/11/25 08:54:50;;;;;;;13.00;6.63;;;;;;;;;;5101007;28;20247;-62
2022/11/25 08:57:18;;;;;;;15.67;6.63;;;;;;;;;;5100304;28;20205;-62
2022/11/25 08:59:46;;;;;;;11.57;6.40;;;;;;;;;;5097889;28;20202;-62
2022/11/25 09:02:15;;;;;;;13.77;6.20;;;;;;;;;;5099248;28;20202;-62
2022/11/25 09:04:45;;;;;;;11.93;6.50;;;;;;;;;;5099812;28;20232;-62
2022/11/25 09:07:13;;;;;;;12.10;6.13;;;;;;;;;;5100808;28;20644;-62
2022/11/25 09:09:41;;;;;;;11.10;6.47;;;;;;;;;;5100244;28;20592;-62
2022/11/25 09:12:09;;;;;;;11.57;6.27;;;;;;;;;;5099991;28;20198;-62
2022/11/25 09:14:39;;;;;;;14.80;6.53;;;;;;;;;;5100386;28;20213;-62
2022/11/25 09:17:08;;;;;;;11.73;5.50;;;;;;;;;;5098177;28;20209;-62
2022/11/25 09:19:36;;;;;;;18.07;6.17;;;;;;;;;;5100430;28;20208;-62
2022/11/25 09:22:06;;;;;;;11.40;5.97;;;;;;;;;;5100602;28;20213;-62
2022/11/25 09:24:34;;;;;;;8.73;5.63;;;;;;;;;;5099641;28;20217;-62
2022/11/25 09:27:03;;;;;;;14.23;6.03;;;;;;;;;;5100408;28;20261;-62
2022/11/25 09:29:31;;;;;;;12.63;6.63;;;;;;;;;;5100488;28;20230;-62
2022/11/25 09:31:59;;;;;;;13.97;7.77;;;;;;;;;;5100375;28;20236;-62
2022/11/25 09:34:27;;;;;;;16.40;7.03;;;;;;;;;;5100522;28;20226;-62
2022/11/25 09:36:55;;;;;;;13.10;6.97;;;;;;;;;;5099824;28;20212;-62
2022/11/25 09:39:29;;;;;;;17.77;8.43;;;;;;;;;;5099701;28;20231;-62
2022/11/25 09:47:58;;;;;;;15.50;7.90;;;;;;;;;;5100148;28;20231;-62
2022/11/25 09:50:31;;;;;;;17.90;8.20;;;;;;;;;;5100068;28;20205;-62
2022/11/25 09:53:05;;;;;;;16.73;8.17;;;;;;;;;;5100116;28;20212;-62
2022/11/25 09:55:38;;;;;;;19.57;8.13;;;;;;;;;;5099890;28;20215;-62
2022/11/25 09:58:16;;;;;;;22.83;7.70;;;;;;;;;;5099758;28;20213;-62
2022/11/25 10:00:45;;;;;;;15.93;7.03;;;;;;;;;;5098250;28;20304;-62
2022/11/25 10:03:18;;;;;;;15.17;8.03;;;;;;;;;;5097237;28;20547;-62
2022/11/25 10:05:50;;;;;;;12.37;7.93;;;;;;;;;;5099601;28;20747;-62
2022/11/25 10:08:22;;;;;;;14.37;7.60;;;;;;;;;;5099872;28;20283;-62
2022/11/25 10:10:55;;;;;;;18.67;7.47;;;;;;;;;;5098690;28;20212;-62
2022/11/25 10:13:29;;;;;;;17.33;8.13;;;;;;;;;;5087987;28;20584;-62
2022/11/25 10:15:59;;;;;;;16.83;7.83;;;;;;;;;;5099022;28;20202;-62
2022/11/25 10:18:29;;;;;;;23.07;8.07;;;;;;;;;;5098074;28;20206;-62
2022/11/25 10:20:58;;;;;;;15.80;7.50;;;;;;;;;;5099486;28;20759;-62
2022/11/25 10:23:28;;;;;;;14.37;7.60;;;;;;;;;;5098366;28;20221;-62
2022/11/25 10:25:58;;;;;;;17.17;7.27;;;;;;;;;;5099369;28;20300;-62
2022/11/25 10:28:30;;;;;;;14.10;6.70;;;;;;;;;;5099085;28;20248;-62
2022/11/25 10:31:02;;;;;;;16.23;7.33;;;;;;;;;;5099256;28;20312;-62
2022/11/25 10:33:32;;;;;;;12.27;7.23;;;;;;;;;;5098946;28;20605;-62
2022/11/25 10:36:01;;;;;;;14.73;7.67;;;;;;;;;;5098317;28;20241;-62
2022/11/25 10:38:30;;;;;;;19.87;9.20;;;;;;;;;;5098570;28;20213;-62
2022/11/25 10:41:00;;;;;;;15.83;6.67;;;;;;;;;;5098910;28;20635;-62
2022/11/25 10:43:28;;;;;;;14.47;7.37;;;;;;;;;;5098161;28;20236;-62
2022/11/25 10:46:05;;;;;;;15.00;7.60;;;;;;;;;;5099229;28;20223;-62
2022/11/25 10:48:45;;;;;;;20.63;7.47;;;;;;;;;;5098214;28;20197;-62
2022/11/25 10:51:21;;;;;;;20.97;7.43;;;;;;;;;;5095058;28;20233;-62
2022/11/25 10:54:03;;;;;;;14.47;6.83;;;;;;;;;;5098587;28;20241;-62
2022/11/25 10:56:42;;;;;;;17.57;7.70;;;;;;;;;;5098654;28;20289;-62
2022/11/25 10:59:13;;;;;;;17.40;7.57;;;;;;;;;;5098644;28;20227;-62
2022/11/25 11:01:41;;;;;;;15.83;7.43;;;;;;;;;;5097491;28;20219;-62
2022/11/25 11:04:13;;;;;;;14.17;8.07;;;;;;;;;;5098785;28;20230;-62
2022/11/25 11:06:43;;;;;;;15.23;7.93;;;;;;;;;;5098398;28;20229;-62
2022/11/25 11:09:25;;;;;;;14.00;8.80;;;;;;;;;;5098100;28;20240;-62
2022/11/25 11:11:55;;;;;;;15.80;8.23;;;;;;;;;;5097577;28;20205;-62
2022/11/25 11:14:28;;;;;;;17.13;8.43;;;;;;;;;;5098104;28;20655;-62
2022/11/25 11:16:57;;;;;;;17.73;9.23;;;;;;;;;;5097373;28;20205;-62
2022/11/25 11:19:26;;;;;;;20.23;8.03;;;;;;;;;;5100951;28;20199;-62
2022/11/25 11:21:57;;;;;;;18.10;8.40;;;;;;;;;;5118303;28;20204;-63
2022/11/25 11:24:30;;;;;;;17.63;7.83;;;;;;;;;;5105907;28;20236;-62
2022/11/25 11:27:04;;;;;;;15.97;7.63;;;;;;;;;;5103795;28;20208;-63
2022/11/25 11:29:32;;;;;;;22.57;8.47;;;;;;;;;;5106221;28;20221;-63
2022/11/25 11:32:01;;;;;;;17.40;8.67;;;;;;;;;;5108002;28;20204;-62
2022/11/25 11:34:50;;;;;;;22.33;9.10;;;;;;;;;;5107610;28;20581;-62
2022/11/25 11:37:25;;;;;;;16.80;8.20;;;;;;;;;;5100560;28;20194;-62
2022/11/25 11:40:01;;;;;;;19.20;8.40;;;;;;;;;;5105631;28;20196;-62
2022/11/25 11:42:35;;;;;;;13.27;7.50;;;;;;;;;;5106140;28;20198;-62
2022/11/25 11:45:10;;;;;;;15.13;8.20;;;;;;;;;;5118167;27;20225;-62
2022/11/25 11:47:42;;;;;;;21.53;9.57;;;;;;;;;;5099294;28;20694;-62
2022/11/25 11:50:25;;;;;;;16.70;8.17;;;;;;;;;;5107607;28;20684;-62
2022/11/25 11:52:56;;;;;;;19.10;8.70;;;;;;;;;;5110065;28;20200;-62
2022/11/25 11:55:42;;;;;;;18.70;8.13;;;;;;;;;;5117881;28;20225;-61
2022/11/25 11:58:14;;;;;;;20.07;8.97;;;;;;;;;;5092845;28;20200;-64
2022/11/25 12:00:45;;;;;;;15.87;8.23;;;;;;;;;;5089356;28;20634;-65
2022/11/25 12:03:15;;;;;;;13.80;8.50;;;;;;;;;;5116914;28;20208;-64
2022/11/25 12:05:43;;;;;;;11.40;7.57;;;;;;;;;;5100110;28;20732;-64
2022/11/25 12:08:13;;;;;;;17.67;7.90;;;;;;;;;;5097756;28;20204;-65
2022/11/25 12:10:43;;;;;;;13.87;7.47;;;;;;;;;;5091740;28;20580;-63
2022/11/25 12:13:20;;;;;;;19.93;9.47;;;;;;;;;;5085006;28;20202;-65
2022/11/25 12:15:52;;;;;;;10.63;7.70;;;;;;;;;;5099715;28;20201;-62
2022/11/25 12:18:26;;;;;;;14.70;7.47;;;;;;;;;;5095370;28;20649;-62
2022/11/25 12:20:58;;;;;;;14.37;7.63;;;;;;;;;;5095561;28;20204;-61
2022/11/25 12:23:29;;;;;;;18.70;8.77;;;;;;;;;;5097550;28;20221;-62
2022/11/25 12:26:01;;;;;;;14.77;7.97;;;;;;;;;;5097686;28;20622;-61
2022/11/25 12:28:35;;;;;;;16.57;7.47;;;;;;;;;;5097696;28;20576;-61
2022/11/25 12:31:06;;;;;;;12.50;6.63;;;;;;;;;;5097918;28;20229;-62
2022/11/25 12:33:39;;;;;;;16.43;7.17;;;;;;;;;;5099035;28;20213;-61
2022/11/25 12:36:10;;;;;;;14.60;6.73;;;;;;;;;;5097573;28;20575;-61
2022/11/25 12:38:39;;;;;;;15.33;6.90;;;;;;;;;;5096287;28;20201;-62
2022/11/25 12:41:12;;;;;;;15.93;7.00;;;;;;;;;;5097548;28;20205;-63
2022/11/25 12:43:43;;;;;;;15.23;6.10;;;;;;;;;;5097131;28;20711;-62
2022/11/25 12:46:15;;;;;;;14.30;6.27;;;;;;;;;;5094523;28;20205;-61
2022/11/25 12:48:43;;;;;;;15.27;6.10;;;;;;;;;;5097583;28;20209;-62
2022/11/25 12:51:18;;;;;;;13.83;6.37;;;;;;;;;;5097429;28;20237;-62
2022/11/25 12:53:50;;;;;;;12.33;6.07;;;;;;;;;;5097005;28;20707;-62
2022/11/25 12:56:21;;;;;;;18.00;7.30;;;;;;;;;;5097393;28;20206;-62
2022/11/25 12:59:00;;;;;;;18.27;7.43;;;;;;;;;;5087530;28;20208;-64
2022/11/25 13:01:34;;;;;;;9.00;5.77;;;;;;;;;;5096937;28;20212;-64
2022/11/25 13:04:23;;;;;;;13.07;6.53;;;;;;;;;;5096913;28;20656;-64
2022/11/25 13:07:08;;;;;;;13.33;5.93;;;;;;;;;;5097642;28;20569;-63
2022/11/25 13:09:44;;;;;;;12.27;5.83;;;;;;;;;;5096945;28;20201;-63
2022/11/25 13:12:17;;;;;;;13.30;5.40;;;;;;;;;;5095197;28;20219;-64
2022/11/25 13:15:01;;;;;;;12.27;6.17;;;;;;;;;;5100681;28;20308;-64
2022/11/25 13:17:32;;;;;;;9.33;5.73;;;;;;;;;;5096130;28;20244;-64
2022/11/25 13:20:14;;;;;;;14.63;5.63;;;;;;;;;;5100762;28;20254;-64
2022/11/25 13:22:42;;;;;;;9.67;5.93;;;;;;;;;;5096940;28;20210;-64
2022/11/25 13:25:22;;;;;;;12.77;6.53;;;;;;;;;;5100066;28;20576;-63
2022/11/25 13:28:00;;;;;;;12.30;5.87;;;;;;;;;;5100197;28;20572;-63
2022/11/25 13:30:38;;;;;;;11.20;5.90;;;;;;;;;;5100198;28;20592;-63
2022/11/25 13:33:24;;;;;;;10.23;5.87;;;;;;;;;;5099215;28;20202;-64
2022/11/25 13:35:54;;;;;;;7.10;6.03;;;;;;;;;;5086673;28;20205;-64
2022/11/25 13:38:35;;;;;;;10.50;5.97;;;;;;;;;;5100114;28;20201;-64
2022/11/25 13:41:04;;;;;;;12.77;6.23;;;;;;;;;;5099995;28;20201;-64
2022/11/25 13:43:35;;;;;;;12.93;5.80;;;;;;;;;;5099746;28;20599;-63
2022/11/25 13:46:03;;;;;;;15.30;5.87;;;;;;;;;;5096207;28;20197;-64
2022/11/25 13:48:36;;;;;;;21.23;8.43;;;;;;;;;;5099764;28;20645;-64
2022/11/25 13:51:17;;;;;;;16.10;5.93;;;;;;;;;;5100108;28;20226;-64
2022/11/25 13:53:51;;;;;;;12.07;5.60;;;;;;;;;;5099533;28;20628;-64
2022/11/25 13:56:26;;;;;;;13.93;6.53;;;;;;;;;;5099695;28;20205;-64
2022/11/25 13:59:12;;;;;;;11.50;5.80;;;;;;;;;;5098888;28;20201;-64
2022/11/25 14:01:41;;;;;;;12.10;5.53;;;;;;;;;;5099774;28;20207;-63
2022/11/25 14:04:10;;;;;;;12.17;5.57;;;;;;;;;;5099812;28;20237;-64
2022/11/25 14:06:56;;;;;;;13.23;5.40;;;;;;;;;;5101087;28;20237;-64
2022/11/25 14:09:34;;;;;;;14.60;6.20;;;;;;;;;;5095758;28;20212;-64
2022/11/25 14:12:08;;;;;;;10.07;5.40;;;;;;;;;;5096978;28;20221;-64
2022/11/25 14:14:47;;;;;;;14.77;6.53;;;;;;;;;;5101994;28;20233;-64
2022/11/25 14:17:31;;;;;;;12.70;6.70;;;;;;;;;;5100734;28;20289;-64
2022/11/25 14:20:14;;;;;;;18.70;10.40;;;;;;;;;;5097876;28;20285;-64
2022/11/25 14:22:56;;;;;;;14.63;7.60;;;;;;;;;;5096689;28;20198;-64
2022/11/25 14:25:27;;;;;;;12.23;6.33;;;;;;;;;;5096096;28;20741;-64
2022/11/25 14:27:58;;;;;;;11.80;6.23;;;;;;;;;;5099384;28;20202;-64
2022/11/25 14:30:31;;;;;;;10.77;5.67;;;;;;;;;;5098467;28;20193;-64
2022/11/25 14:33:01;;;;;;;9.20;5.67;;;;;;;;;;5098644;28;20193;-64
2022/11/25 14:35:32;;;;;;;12.03;5.70;;;;;;;;;;5098570;28;20198;-65
2022/11/25 14:38:04;;;;;;;10.93;6.30;;;;;;;;;;5099014;28;20206;-64
2022/11/25 14:40:38;;;;;;;13.67;6.77;;;;;;;;;;5099079;28;20213;-64
2022/11/25 14:43:07;;;;;;;9.63;5.73;;;;;;;;;;5099195;28;20204;-64
2022/11/25 14:45:35;;;;;;;12.07;6.53;;;;;;;;;;5098166;28;20208;-64
2022/11/25 14:48:13;;;;;;;12.60;6.23;;;;;;;;;;5099155;28;20210;-64
2022/11/25 14:50:41;;;;;;;22.90;9.77;;;;;;;;;;5098756;28;20231;-63
2022/11/25 14:53:13;;;;;;;18.63;6.97;;;;;;;;;;5098947;28;20209;-63
2022/11/25 14:55:40;;;;;;;8.30;5.17;;;;;;;;;;5097552;28;20647;-63
2022/11/25 14:58:11;;;;;;;10.63;5.40;;;;;;;;;;5093537;28;20661;-63
2022/11/25 15:00:49;;;;;;;11.40;5.93;;;;;;;;;;5098686;28;20209;-63
2022/11/25 15:03:18;;;;;;;9.80;6.43;;;;;;;;;;5098532;28;20209;-62
2022/11/25 15:05:53;;;;;;;10.40;6.80;;;;;;;;;;5098543;28;20232;-63